Accueil
METAR-TAF:

METAR-TAF

Aéroports :

Aéroport Agen-La Garenne

Agen, France

latitude: 44-11N, longitude: 000-36E, altitude: 61 m

Observation

Le bulletin a été fait il y a 43 minutes, à 18:30 UTC
Vent 2 kt de direction variable
Température 31°C
Humidité 43%
Pression 1016 hPa
Visibilité 10 km ou plus
pas de nuages en-dessous de 1500 mètres et pas de cumulonimbus.

METAR: LFBA 201830Z AUTO VRB02KT CAVOK 31/17 Q1016 NOSIG

Heure: 21:13 (19:13 UTC)

Prévision

Le bulletin a été fait il y a 5 heures et 13 minutes, à 14:00 UTC
Prévision valable du 20 à 15 UTC au 20 à 24 UTC
Vent 10 kt de est/sud-est
Visibilité 10 km ou plus
pas de nuages en-dessous de 1500 mètres et pas de cumulonimbus.
Evoluant progressivement
du 20 à 16 UTC au 20 à 18 UTC
Vent 2 kt de direction variable

TAF: LFBA 201400Z 2015/2024 12010KT CAVOK BECMG 2016/2018 VRB02KT

Observations et prévisions météorologiques de plus de 4000 aéroports (messages METAR et TAF).

Les stations disponibles sont représentées par des disques jaunes et rouges sur la carte.

Passer la souris dessus pour voir le nom de la station.

Cliquer dessus pour voir les observations et prévisions météorologiques.

Pour changer de carte: cliquez sur les boutons verts avec une croix noire pour zoomer, sur le bouton vert avec un tiret pour effectuer un zoom arrière, ou sur les flèches vertes pour les cartes adjacentes.


METAR-TAF: